sensor_id;sensor_type;location;lat;lon;timestamp;temperature;humidity
21799;DHT22;24973;47.178;15.316;2023-01-28T00:02:47;-2.10;99.90
21799;DHT22;24973;47.178;15.316;2023-01-28T00:05:36;-2.10;99.90
21799;DHT22;24973;47.178;15.316;2023-01-28T00:08:25;-1.80;99.90
21799;DHT22;24973;47.178;15.316;2023-01-28T00:11:14;-2.20;99.90
21799;DHT22;24973;47.178;15.316;2023-01-28T00:14:03;-2.20;99.90
21799;DHT22;24973;47.178;15.316;2023-01-28T00:16:51;-2.30;99.90
21799;DHT22;24973;47.178;15.316;2023-01-28T00:19:42;-2.30;99.90
21799;DHT22;24973;47.178;15.316;2023-01-28T00:22:31;0.40;99.90
21799;DHT22;24973;47.178;15.316;2023-01-28T00:25:20;-2.30;99.90
21799;DHT22;24973;47.178;15.316;2023-01-28T00:28:09;0.10;99.90
21799;DHT22;24973;47.178;15.316;2023-01-28T00:30:59;-2.60;99.90
21799;DHT22;24973;47.178;15.316;2023-01-28T00:33:54;-2.70;99.90
21799;DHT22;24973;47.178;15.316;2023-01-28T00:36:45;-2.70;99.90
21799;DHT22;24973;47.178;15.316;2023-01-28T00:39:43;-1.80;99.90
21799;DHT22;24973;47.178;15.316;2023-01-28T00:42:32;-2.50;99.90
21799;DHT22;24973;47.178;15.316;2023-01-28T00:45:20;-2.40;99.90
21799;DHT22;24973;47.178;15.316;2023-01-28T00:48:09;-2.30;99.90
21799;DHT22;24973;47.178;15.316;2023-01-28T00:50:58;-0.20;99.90
21799;DHT22;24973;47.178;15.316;2023-01-28T00:53:48;-2.30;99.90
21799;DHT22;24973;47.178;15.316;2023-01-28T00:56:37;-0.40;99.90
21799;DHT22;24973;47.178;15.316;2023-01-28T00:59:26;-1.20;99.90
21799;DHT22;24973;47.178;15.316;2023-01-28T01:02:15;-1.50;99.90
21799;DHT22;24973;47.178;15.316;2023-01-28T01:05:04;-1.00;99.90
21799;DHT22;24973;47.178;15.316;2023-01-28T01:07:53;-2.00;99.90
21799;DHT22;24973;47.178;15.316;2023-01-28T01:10:44;-1.70;99.90
21799;DHT22;24973;47.178;15.316;2023-01-28T01:13:33;-2.10;99.90
21799;DHT22;24973;47.178;15.316;2023-01-28T01:16:23;-0.20;99.90
21799;DHT22;24973;47.178;15.316;2023-01-28T01:19:13;-2.10;99.90
21799;DHT22;24973;47.178;15.316;2023-01-28T01:22:02;-2.10;99.90
21799;DHT22;24973;47.178;15.316;2023-01-28T01:24:50;-2.10;99.90
21799;DHT22;24973;47.178;15.316;2023-01-28T01:27:41;-0.60;99.90
21799;DHT22;24973;47.178;15.316;2023-01-28T01:30:31;0.20;99.90
21799;DHT22;24973;47.178;15.316;2023-01-28T01:33:20;-1.30;99.90
21799;DHT22;24973;47.178;15.316;2023-01-28T01:36:10;-0.50;99.90
21799;DHT22;24973;47.178;15.316;2023-01-28T01:39:00;-2.00;99.90
21799;DHT22;24973;47.178;15.316;2023-01-28T01:41:48;-2.00;99.90
21799;DHT22;24973;47.178;15.316;2023-01-28T01:45:03;-2.00;99.90
21799;DHT22;24973;47.178;15.316;2023-01-28T01:47:59;-0.60;99.90
21799;DHT22;24973;47.178;15.316;2023-01-28T01:50:54;-2.10;99.90
21799;DHT22;24973;47.178;15.316;2023-01-28T01:53:47;-0.30;99.90
21799;DHT22;24973;47.178;15.316;2023-01-28T01:56:39;-2.10;99.90
21799;DHT22;24973;47.178;15.316;2023-01-28T01:59:32;-0.20;99.90
21799;DHT22;24973;47.178;15.316;2023-01-28T02:02:23;-1.60;99.90
21799;DHT22;24973;47.178;15.316;2023-01-28T02:05:14;-1.00;99.90
21799;DHT22;24973;47.178;15.316;2023-01-28T02:08:05;-2.00;99.90
21799;DHT22;24973;47.178;15.316;2023-01-28T02:11:13;-2.00;99.90
21799;DHT22;24973;47.178;15.316;2023-01-28T02:14:04;-1.50;99.90
21799;DHT22;24973;47.178;15.316;2023-01-28T02:16:53;-1.20;99.90
21799;DHT22;24973;47.178;15.316;2023-01-28T02:19:47;-1.40;99.90
21799;DHT22;24973;47.178;15.316;2023-01-28T02:23:16;0.00;99.90
21799;DHT22;24973;47.178;15.316;2023-01-28T02:26:46;-1.90;99.90
21799;DHT22;24973;47.178;15.316;2023-01-28T02:29:55;-1.90;99.90
21799;DHT22;24973;47.178;15.316;2023-01-28T02:32:52;-0.60;99.90
21799;DHT22;24973;47.178;15.316;2023-01-28T02:35:46;-1.90;99.90
21799;DHT22;24973;47.178;15.316;2023-01-28T02:38:41;-1.40;99.90
21799;DHT22;24973;47.178;15.316;2023-01-28T02:41:37;0.30;99.90
21799;DHT22;24973;47.178;15.316;2023-01-28T02:44:28;-2.00;99.90
21799;DHT22;24973;47.178;15.316;2023-01-28T02:47:18;-2.00;99.90
21799;DHT22;24973;47.178;15.316;2023-01-28T02:50:33;-2.00;99.90
21799;DHT22;24973;47.178;15.316;2023-01-28T02:53:32;0.10;99.90
21799;DHT22;24973;47.178;15.316;2023-01-28T02:56:37;-1.90;99.90
21799;DHT22;24973;47.178;15.316;2023-01-28T02:59:35;-0.40;99.90
21799;DHT22;24973;47.178;15.316;2023-01-28T03:02:32;-1.30;99.90
21799;DHT22;24973;47.178;15.316;2023-01-28T03:05:26;-1.80;99.90
21799;DHT22;24973;47.178;15.316;2023-01-28T03:08:18;-1.90;99.90
21799;DHT22;24973;47.178;15.316;2023-01-28T03:11:24;-1.90;99.90
21799;DHT22;24973;47.178;15.316;2023-01-28T03:14:34;-1.90;99.90
21799;DHT22;24973;47.178;15.316;2023-01-28T03:17:44;-1.80;99.90
21799;DHT22;24973;47.178;15.316;2023-01-28T03:20:56;-1.80;99.90
21799;DHT22;24973;47.178;15.316;2023-01-28T03:24:10;-1.70;99.90
21799;DHT22;24973;47.178;15.316;2023-01-28T03:27:23;-1.70;99.90
21799;DHT22;24973;47.178;15.316;2023-01-28T03:30:37;-1.80;99.90
21799;DHT22;24973;47.178;15.316;2023-01-28T03:33:47;-0.90;99.90
21799;DHT22;24973;47.178;15.316;2023-01-28T03:36:55;0.30;99.90
21799;DHT22;24973;47.178;15.316;2023-01-28T03:39:44;-1.60;99.90
21799;DHT22;24973;47.178;15.316;2023-01-28T03:42:33;-1.70;99.90
21799;DHT22;24973;47.178;15.316;2023-01-28T03:45:22;-1.70;99.90
21799;DHT22;24973;47.178;15.316;2023-01-28T03:48:11;-1.70;99.90
21799;DHT22;24973;47.178;15.316;2023-01-28T03:51:03;-1.70;99.90
21799;DHT22;24973;47.178;15.316;2023-01-28T03:53:52;-1.70;99.90
21799;DHT22;24973;47.178;15.316;2023-01-28T03:56:40;-0.10;99.90
21799;DHT22;24973;47.178;15.316;2023-01-28T03:59:29;-1.40;99.90
21799;DHT22;24973;47.178;15.316;2023-01-28T04:02:18;-1.80;99.90
21799;DHT22;24973;47.178;15.316;2023-01-28T04:05:08;-1.70;99.90
21799;DHT22;24973;47.178;15.316;2023-01-28T04:08:01;-0.10;99.90
21799;DHT22;24973;47.178;15.316;2023-01-28T04:10:50;0.50;99.90
21799;DHT22;24973;47.178;15.316;2023-01-28T04:13:39;-1.30;99.90
21799;DHT22;24973;47.178;15.316;2023-01-28T04:16:27;-1.70;99.90
21799;DHT22;24973;47.178;15.316;2023-01-28T04:19:16;-1.60;99.90
21799;DHT22;24973;47.178;15.316;2023-01-28T04:22:06;-1.50;99.90
21799;DHT22;24973;47.178;15.316;2023-01-28T04:24:58;-1.50;99.90
21799;DHT22;24973;47.178;15.316;2023-01-28T04:27:47;-1.30;99.90
21799;DHT22;24973;47.178;15.316;2023-01-28T04:30:36;-0.20;99.90
21799;DHT22;24973;47.178;15.316;2023-01-28T04:33:24;-1.50;99.90
21799;DHT22;24973;47.178;15.316;2023-01-28T04:36:13;-1.50;99.90
21799;DHT22;24973;47.178;15.316;2023-01-28T04:39:02;0.10;99.90
21799;DHT22;24973;47.178;15.316;2023-01-28T04:41:52;-0.70;99.90
21799;DHT22;24973;47.178;15.316;2023-01-28T04:44:41;-1.40;99.90
21799;DHT22;24973;47.178;15.316;2023-01-28T04:47:30;-1.40;99.90
21799;DHT22;24973;47.178;15.316;2023-01-28T04:50:19;-1.30;99.90
21799;DHT22;24973;47.178;15.316;2023-01-28T04:53:07;-0.80;99.90
21799;DHT22;24973;47.178;15.316;2023-01-28T04:55:56;-0.90;99.90
21799;DHT22;24973;47.178;15.316;2023-01-28T04:58:47;-1.00;99.90
21799;DHT22;24973;47.178;15.316;2023-01-28T05:01:35;-0.40;99.90
21799;DHT22;24973;47.178;15.316;2023-01-28T05:04:24;-1.20;99.90
21799;DHT22;24973;47.178;15.316;2023-01-28T05:07:13;-1.20;99.90
21799;DHT22;24973;47.178;15.316;2023-01-28T05:10:02;-1.20;99.90
21799;DHT22;24973;47.178;15.316;2023-01-28T05:12:51;-1.20;99.90
21799;DHT22;24973;47.178;15.316;2023-01-28T05:15:41;-1.20;99.90
21799;DHT22;24973;47.178;15.316;2023-01-28T05:18:30;-1.20;99.90
21799;DHT22;24973;47.178;15.316;2023-01-28T05:21:19;-0.10;99.90
21799;DHT22;24973;47.178;15.316;2023-01-28T05:24:08;-0.10;99.90
21799;DHT22;24973;47.178;15.316;2023-01-28T05:26:57;-1.20;99.90
21799;DHT22;24973;47.178;15.316;2023-01-28T05:29:46;-1.10;99.90
21799;DHT22;24973;47.178;15.316;2023-01-28T05:32:36;-1.10;99.90
21799;DHT22;24973;47.178;15.316;2023-01-28T05:35:24;-1.10;99.90
21799;DHT22;24973;47.178;15.316;2023-01-28T05:38:13;-1.10;99.90
21799;DHT22;24973;47.178;15.316;2023-01-28T05:41:02;-1.00;99.90
21799;DHT22;24973;47.178;15.316;2023-01-28T05:43:51;-1.00;99.90
21799;DHT22;24973;47.178;15.316;2023-01-28T05:46:40;-1.00;99.90
21799;DHT22;24973;47.178;15.316;2023-01-28T05:49:32;-1.00;99.90
21799;DHT22;24973;47.178;15.316;2023-01-28T05:52:21;0.40;99.90
21799;DHT22;24973;47.178;15.316;2023-01-28T05:55:10;0.10;99.90
21799;DHT22;24973;47.178;15.316;2023-01-28T05:57:59;-0.10;99.90
21799;DHT22;24973;47.178;15.316;2023-01-28T06:00:48;-0.90;99.90
21799;DHT22;24973;47.178;15.316;2023-01-28T06:03:36;-1.00;99.90
21799;DHT22;24973;47.178;15.316;2023-01-28T06:06:27;-0.10;99.90
21799;DHT22;24973;47.178;15.316;2023-01-28T06:09:15;-0.30;99.90
21799;DHT22;24973;47.178;15.316;2023-01-28T06:12:05;-1.00;99.90
21799;DHT22;24973;47.178;15.316;2023-01-28T06:14:54;-0.90;99.90
21799;DHT22;24973;47.178;15.316;2023-01-28T06:17:42;-0.90;99.90
21799;DHT22;24973;47.178;15.316;2023-01-28T06:20:31;-0.60;99.90
21799;DHT22;24973;47.178;15.316;2023-01-28T06:23:21;-1.00;99.90
21799;DHT22;24973;47.178;15.316;2023-01-28T06:26:10;-0.90;99.90
21799;DHT22;24973;47.178;15.316;2023-01-28T06:28:59;-0.90;99.90
21799;DHT22;24973;47.178;15.316;2023-01-28T06:31:47;-0.10;99.90
21799;DHT22;24973;47.178;15.316;2023-01-28T06:34:37;-0.90;99.90
21799;DHT22;24973;47.178;15.316;2023-01-28T06:37:26;0.70;99.90
21799;DHT22;24973;47.178;15.316;2023-01-28T06:40:17;-0.40;99.90
21799;DHT22;24973;47.178;15.316;2023-01-28T06:43:06;-0.90;99.90
21799;DHT22;24973;47.178;15.316;2023-01-28T06:45:55;0.00;99.90
21799;DHT22;24973;47.178;15.316;2023-01-28T06:48:44;-0.80;99.90
21799;DHT22;24973;47.178;15.316;2023-01-28T06:51:33;-0.80;99.90
21799;DHT22;24973;47.178;15.316;2023-01-28T06:54:22;0.30;99.90
21799;DHT22;24973;47.178;15.316;2023-01-28T06:57:12;-0.80;99.90
21799;DHT22;24973;47.178;15.316;2023-01-28T07:00:01;-0.80;99.90
21799;DHT22;24973;47.178;15.316;2023-01-28T07:02:53;-0.80;99.90
21799;DHT22;24973;47.178;15.316;2023-01-28T07:05:43;-0.30;99.90
21799;DHT22;24973;47.178;15.316;2023-01-28T07:08:31;-0.70;99.90
21799;DHT22;24973;47.178;15.316;2023-01-28T07:11:20;-0.70;99.90
21799;DHT22;24973;47.178;15.316;2023-01-28T07:14:10;0.10;99.90
21799;DHT22;24973;47.178;15.316;2023-01-28T07:16:59;-0.70;99.90
21799;DHT22;24973;47.178;15.316;2023-01-28T07:19:48;0.40;99.90
21799;DHT22;24973;47.178;15.316;2023-01-28T07:22:37;-0.60;99.90
21799;DHT22;24973;47.178;15.316;2023-01-28T07:25:27;0.00;99.90
21799;DHT22;24973;47.178;15.316;2023-01-28T07:28:16;0.20;99.90
21799;DHT22;24973;47.178;15.316;2023-01-28T07:31:08;0.60;99.90
21799;DHT22;24973;47.178;15.316;2023-01-28T07:33:57;0.60;99.90
21799;DHT22;24973;47.178;15.316;2023-01-28T07:36:46;-0.40;99.90
21799;DHT22;24973;47.178;15.316;2023-01-28T07:39:35;0.00;99.90
21799;DHT22;24973;47.178;15.316;2023-01-28T07:42:24;-0.30;99.90
21799;DHT22;24973;47.178;15.316;2023-01-28T07:45:14;0.40;99.90
21799;DHT22;24973;47.178;15.316;2023-01-28T07:48:06;-0.20;99.90
21799;DHT22;24973;47.178;15.316;2023-01-28T07:50:58;-0.10;99.90
21799;DHT22;24973;47.178;15.316;2023-01-28T07:53:47;-0.10;99.90
21799;DHT22;24973;47.178;15.316;2023-01-28T07:56:36;0.00;99.90
21799;DHT22;24973;47.178;15.316;2023-01-28T07:59:25;0.10;99.90
21799;DHT22;24973;47.178;15.316;2023-01-28T08:02:14;1.40;99.90
21799;DHT22;24973;47.178;15.316;2023-01-28T08:05:05;0.90;99.90
21799;DHT22;24973;47.178;15.316;2023-01-28T08:07:54;0.30;99.90
21799;DHT22;24973;47.178;15.316;2023-01-28T08:10:44;0.80;99.90
21799;DHT22;24973;47.178;15.316;2023-01-28T08:13:33;0.90;99.90
21799;DHT22;24973;47.178;15.316;2023-01-28T08:16:21;0.50;99.90
21799;DHT22;24973;47.178;15.316;2023-01-28T08:19:10;1.50;99.90
21799;DHT22;24973;47.178;15.316;2023-01-28T08:22:00;0.50;99.90
21799;DHT22;24973;47.178;15.316;2023-01-28T08:24:49;1.10;99.90
21799;DHT22;24973;47.178;15.316;2023-01-28T08:27:38;1.60;99.90
21799;DHT22;24973;47.178;15.316;2023-01-28T08:30:26;0.50;99.90
21799;DHT22;24973;47.178;15.316;2023-01-28T08:33:16;0.50;99.90
21799;DHT22;24973;47.178;15.316;2023-01-28T08:36:06;0.60;99.90
21799;DHT22;24973;47.178;15.316;2023-01-28T08:38:57;0.60;99.90
21799;DHT22;24973;47.178;15.316;2023-01-28T08:41:45;0.60;99.90
21799;DHT22;24973;47.178;15.316;2023-01-28T08:44:34;0.60;99.90
21799;DHT22;24973;47.178;15.316;2023-01-28T08:47:23;0.80;99.90
21799;DHT22;24973;47.178;15.316;2023-01-28T08:50:12;0.60;99.90
21799;DHT22;24973;47.178;15.316;2023-01-28T08:53:02;0.70;99.90
21799;DHT22;24973;47.178;15.316;2023-01-28T08:55:54;0.70;99.90
21799;DHT22;24973;47.178;15.316;2023-01-28T08:58:43;2.20;99.90
21799;DHT22;24973;47.178;15.316;2023-01-28T09:01:32;0.90;99.90
21799;DHT22;24973;47.178;15.316;2023-01-28T09:04:21;0.70;99.90
21799;DHT22;24973;47.178;15.316;2023-01-28T09:07:09;1.50;99.90
21799;DHT22;24973;47.178;15.316;2023-01-28T09:09:58;1.40;99.90
21799;DHT22;24973;47.178;15.316;2023-01-28T09:12:48;1.70;99.90
21799;DHT22;24973;47.178;15.316;2023-01-28T09:15:37;1.40;99.90
21799;DHT22;24973;47.178;15.316;2023-01-28T09:18:26;1.60;99.90
21799;DHT22;24973;47.178;15.316;2023-01-28T09:21:15;0.90;99.90
21799;DHT22;24973;47.178;15.316;2023-01-28T09:24:04;1.20;99.90
21799;DHT22;24973;47.178;15.316;2023-01-28T09:26:53;1.00;99.90
21799;DHT22;24973;47.178;15.316;2023-01-28T09:29:43;1.60;99.90
21799;DHT22;24973;47.178;15.316;2023-01-28T09:32:32;1.00;99.90
21799;DHT22;24973;47.178;15.316;2023-01-28T09:35:21;1.10;99.90
21799;DHT22;24973;47.178;15.316;2023-01-28T09:38:10;1.50;99.90
21799;DHT22;24973;47.178;15.316;2023-01-28T09:40:59;1.10;99.90
21799;DHT22;24973;47.178;15.316;2023-01-28T09:44:00;1.50;99.90
21799;DHT22;24973;47.178;15.316;2023-01-28T09:46:59;1.20;99.90
21799;DHT22;24973;47.178;15.316;2023-01-28T09:49:51;1.20;99.90
21799;DHT22;24973;47.178;15.316;2023-01-28T09:52:43;2.00;99.90
21799;DHT22;24973;47.178;15.316;2023-01-28T09:55:35;1.20;99.90
21799;DHT22;24973;47.178;15.316;2023-01-28T09:58:26;1.80;99.90
21799;DHT22;24973;47.178;15.316;2023-01-28T10:01:29;1.20;99.90
21799;DHT22;24973;47.178;15.316;2023-01-28T10:04:42;1.60;99.90
21799;DHT22;24973;47.178;15.316;2023-01-28T10:07:41;1.20;99.90
21799;DHT22;24973;47.178;15.316;2023-01-28T10:10:41;1.30;99.90
21799;DHT22;24973;47.178;15.316;2023-01-28T10:13:41;1.20;99.90
21799;DHT22;24973;47.178;15.316;2023-01-28T10:16:37;1.20;99.90
21799;DHT22;24973;47.178;15.316;2023-01-28T10:19:33;1.20;99.90
21799;DHT22;24973;47.178;15.316;2023-01-28T10:22:27;1.50;99.90
21799;DHT22;24973;47.178;15.316;2023-01-28T10:25:19;1.30;99.90
21799;DHT22;24973;47.178;15.316;2023-01-28T10:28:17;1.30;99.90
21799;DHT22;24973;47.178;15.316;2023-01-28T10:31:11;1.30;99.90
21799;DHT22;24973;47.178;15.316;2023-01-28T10:34:01;1.50;99.90
21799;DHT22;24973;47.178;15.316;2023-01-28T10:36:52;1.40;99.90
21799;DHT22;24973;47.178;15.316;2023-01-28T10:39:42;1.40;99.90
21799;DHT22;24973;47.178;15.316;2023-01-28T10:42:33;1.60;99.90
21799;DHT22;24973;47.178;15.316;2023-01-28T10:45:25;1.60;99.90
21799;DHT22;24973;47.178;15.316;2023-01-28T10:48:22;1.70;99.90
21799;DHT22;24973;47.178;15.316;2023-01-28T10:51:11;1.70;99.90
21799;DHT22;24973;47.178;15.316;2023-01-28T10:54:13;1.70;99.90
21799;DHT22;24973;47.178;15.316;2023-01-28T10:57:09;1.70;99.90
21799;DHT22;24973;47.178;15.316;2023-01-28T11:00:10;1.80;99.90
21799;DHT22;24973;47.178;15.316;2023-01-28T11:03:01;1.80;99.90
21799;DHT22;24973;47.178;15.316;2023-01-28T11:05:50;1.80;99.90
21799;DHT22;24973;47.178;15.316;2023-01-28T11:08:42;1.90;99.90
21799;DHT22;24973;47.178;15.316;2023-01-28T11:11:33;1.90;99.90
21799;DHT22;24973;47.178;15.316;2023-01-28T11:14:24;2.20;99.90
21799;DHT22;24973;47.178;15.316;2023-01-28T11:17:15;2.20;99.90
21799;DHT22;24973;47.178;15.316;2023-01-28T11:20:10;2.20;99.90
21799;DHT22;24973;47.178;15.316;2023-01-28T11:23:01;2.30;99.90
21799;DHT22;24973;47.178;15.316;2023-01-28T11:25:59;2.30;99.90
21799;DHT22;24973;47.178;15.316;2023-01-28T11:28:52;2.40;99.90
21799;DHT22;24973;47.178;15.316;2023-01-28T11:31:43;2.40;99.90
21799;DHT22;24973;47.178;15.316;2023-01-28T11:34:33;2.50;99.90
21799;DHT22;24973;47.178;15.316;2023-01-28T11:37:23;2.50;99.90
21799;DHT22;24973;47.178;15.316;2023-01-28T11:40:16;2.60;99.90
21799;DHT22;24973;47.178;15.316;2023-01-28T11:43:07;2.60;99.90
21799;DHT22;24973;47.178;15.316;2023-01-28T11:46:04;2.50;99.90
21799;DHT22;24973;47.178;15.316;2023-01-28T11:49:07;2.50;99.90
21799;DHT22;24973;47.178;15.316;2023-01-28T11:52:03;2.50;99.90
21799;DHT22;24973;47.178;15.316;2023-01-28T11:55:01;2.50;99.90
21799;DHT22;24973;47.178;15.316;2023-01-28T11:58:02;2.50;99.90
21799;DHT22;24973;47.178;15.316;2023-01-28T12:01:01;2.50;99.90
21799;DHT22;24973;47.178;15.316;2023-01-28T12:04:22;2.50;99.90
21799;DHT22;24973;47.178;15.316;2023-01-28T12:07:31;2.40;99.90
21799;DHT22;24973;47.178;15.316;2023-01-28T12:10:28;2.40;99.90
21799;DHT22;24973;47.178;15.316;2023-01-28T12:13:32;2.50;99.90
21799;DHT22;24973;47.178;15.316;2023-01-28T12:16:45;2.40;99.90
21799;DHT22;24973;47.178;15.316;2023-01-28T12:19:56;2.50;99.90
21799;DHT22;24973;47.178;15.316;2023-01-28T12:26:10;2.30;99.90
21799;DHT22;24973;47.178;15.316;2023-01-28T12:29:16;2.20;99.90
21799;DHT22;24973;47.178;15.316;2023-01-28T12:32:32;2.10;99.90
21799;DHT22;24973;47.178;15.316;2023-01-28T12:35:39;2.10;99.90
21799;DHT22;24973;47.178;15.316;2023-01-28T12:38:40;2.00;99.90
21799;DHT22;24973;47.178;15.316;2023-01-28T12:41:39;2.00;99.90
21799;DHT22;24973;47.178;15.316;2023-01-28T12:44:33;1.90;99.90
21799;DHT22;24973;47.178;15.316;2023-01-28T12:47:30;1.90;99.90
21799;DHT22;24973;47.178;15.316;2023-01-28T12:50:26;1.80;99.90
21799;DHT22;24973;47.178;15.316;2023-01-28T12:53:22;1.80;99.90
21799;DHT22;24973;47.178;15.316;2023-01-28T12:56:15;1.80;99.90
21799;DHT22;24973;47.178;15.316;2023-01-28T12:59:10;1.80;99.90
21799;DHT22;24973;47.178;15.316;2023-01-28T13:02:12;1.80;99.90
21799;DHT22;24973;47.178;15.316;2023-01-28T13:05:13;2.20;99.90
21799;DHT22;24973;47.178;15.316;2023-01-28T13:08:10;2.90;99.90
21799;DHT22;24973;47.178;15.316;2023-01-28T13:11:03;1.80;99.90
21799;DHT22;24973;47.178;15.316;2023-01-28T13:13:53;1.90;99.90
21799;DHT22;24973;47.178;15.316;2023-01-28T13:16:42;1.90;99.90
21799;DHT22;24973;47.178;15.316;2023-01-28T13:19:36;1.90;99.90
21799;DHT22;24973;47.178;15.316;2023-01-28T13:22:30;1.90;99.90
21799;DHT22;24973;47.178;15.316;2023-01-28T13:25:23;2.20;99.90
21799;DHT22;24973;47.178;15.316;2023-01-28T13:28:25;1.90;99.90
21799;DHT22;24973;47.178;15.316;2023-01-28T13:31:16;2.30;99.90
21799;DHT22;24973;47.178;15.316;2023-01-28T13:34:07;2.00;99.90
21799;DHT22;24973;47.178;15.316;2023-01-28T13:36:58;2.10;99.90
21799;DHT22;24973;47.178;15.316;2023-01-28T13:39:58;2.40;99.90
21799;DHT22;24973;47.178;15.316;2023-01-28T13:42:58;2.10;99.90
21799;DHT22;24973;47.178;15.316;2023-01-28T13:45:55;2.10;99.90
21799;DHT22;24973;47.178;15.316;2023-01-28T13:48:48;2.10;99.90
21799;DHT22;24973;47.178;15.316;2023-01-28T13:51:39;2.10;99.90
21799;DHT22;24973;47.178;15.316;2023-01-28T13:54:35;2.20;99.90
21799;DHT22;24973;47.178;15.316;2023-01-28T13:57:55;2.30;99.90
21799;DHT22;24973;47.178;15.316;2023-01-28T14:05:26;2.10;99.90
21799;DHT22;24973;47.178;15.316;2023-01-28T14:08:50;2.10;99.90
21799;DHT22;24973;47.178;15.316;2023-01-28T14:12:05;2.00;99.90
21799;DHT22;24973;47.178;15.316;2023-01-28T14:18:34;2.00;99.90
21799;DHT22;24973;47.178;15.316;2023-01-28T14:21:26;1.90;99.90
21799;DHT22;24973;47.178;15.316;2023-01-28T14:24:16;1.90;99.90
21799;DHT22;24973;47.178;15.316;2023-01-28T14:27:12;1.90;99.90
21799;DHT22;24973;47.178;15.316;2023-01-28T14:30:12;1.90;99.90
21799;DHT22;24973;47.178;15.316;2023-01-28T14:33:09;1.90;99.90
21799;DHT22;24973;47.178;15.316;2023-01-28T14:35:59;1.80;99.90
21799;DHT22;24973;47.178;15.316;2023-01-28T14:38:49;1.90;99.90
21799;DHT22;24973;47.178;15.316;2023-01-28T14:41:39;2.20;99.90
21799;DHT22;24973;47.178;15.316;2023-01-28T14:44:35;1.80;99.90
21799;DHT22;24973;47.178;15.316;2023-01-28T14:47:40;1.70;99.90
21799;DHT22;24973;47.178;15.316;2023-01-28T14:50:45;1.60;99.90
21799;DHT22;24973;47.178;15.316;2023-01-28T14:53:52;1.60;99.90
21799;DHT22;24973;47.178;15.316;2023-01-28T14:57:05;1.50;99.90
21799;DHT22;24973;47.178;15.316;2023-01-28T15:00:15;1.50;99.90
21799;DHT22;24973;47.178;15.316;2023-01-28T15:03:16;1.50;99.90
21799;DHT22;24973;47.178;15.316;2023-01-28T15:06:14;1.50;99.90
21799;DHT22;24973;47.178;15.316;2023-01-28T15:09:08;3.10;99.90
21799;DHT22;24973;47.178;15.316;2023-01-28T15:12:00;2.70;99.90
21799;DHT22;24973;47.178;15.316;2023-01-28T15:14:50;2.00;99.90
21799;DHT22;24973;47.178;15.316;2023-01-28T15:17:39;1.40;99.90
21799;DHT22;24973;47.178;15.316;2023-01-28T15:20:30;1.90;99.90
21799;DHT22;24973;47.178;15.316;2023-01-28T15:23:24;1.40;99.90
21799;DHT22;24973;47.178;15.316;2023-01-28T15:26:17;2.90;99.90
21799;DHT22;24973;47.178;15.316;2023-01-28T15:29:22;1.40;99.90
21799;DHT22;24973;47.178;15.316;2023-01-28T15:32:21;1.30;99.90
21799;DHT22;24973;47.178;15.316;2023-01-28T15:35:12;2.60;99.90
21799;DHT22;24973;47.178;15.316;2023-01-28T15:38:03;1.20;99.90
21799;DHT22;24973;47.178;15.316;2023-01-28T15:40:54;1.20;99.90
21799;DHT22;24973;47.178;15.316;2023-01-28T15:43:48;2.40;99.90
21799;DHT22;24973;47.178;15.316;2023-01-28T15:46:39;1.40;99.90
21799;DHT22;24973;47.178;15.316;2023-01-28T15:49:31;2.20;99.90
21799;DHT22;24973;47.178;15.316;2023-01-28T15:52:29;1.00;99.90
21799;DHT22;24973;47.178;15.316;2023-01-28T15:55:34;1.00;99.90
21799;DHT22;24973;47.178;15.316;2023-01-28T15:58:29;1.50;99.90
21799;DHT22;24973;47.178;15.316;2023-01-28T16:01:20;1.30;99.90
21799;DHT22;24973;47.178;15.316;2023-01-28T16:04:22;1.30;99.90
21799;DHT22;24973;47.178;15.316;2023-01-28T16:07:12;1.00;99.90
21799;DHT22;24973;47.178;15.316;2023-01-28T16:10:01;2.20;99.90
21799;DHT22;24973;47.178;15.316;2023-01-28T16:12:55;0.70;99.90
21799;DHT22;24973;47.178;15.316;2023-01-28T16:15:51;0.70;99.90
21799;DHT22;24973;47.178;15.316;2023-01-28T16:18:43;0.70;99.90
21799;DHT22;24973;47.178;15.316;2023-01-28T16:21:37;0.70;99.90
21799;DHT22;24973;47.178;15.316;2023-01-28T16:24:32;0.70;99.90
21799;DHT22;24973;47.178;15.316;2023-01-28T16:27:24;1.30;99.90
21799;DHT22;24973;47.178;15.316;2023-01-28T16:30:16;0.60;99.90
21799;DHT22;24973;47.178;15.316;2023-01-28T16:33:16;0.60;99.90
21799;DHT22;24973;47.178;15.316;2023-01-28T16:36:09;1.00;99.90
21799;DHT22;24973;47.178;15.316;2023-01-28T16:38:58;0.50;99.90
21799;DHT22;24973;47.178;15.316;2023-01-28T16:41:47;0.80;99.90
21799;DHT22;24973;47.178;15.316;2023-01-28T16:44:36;0.50;99.90
21799;DHT22;24973;47.178;15.316;2023-01-28T16:47:26;0.50;99.90
21799;DHT22;24973;47.178;15.316;2023-01-28T16:50:16;0.90;99.90
21799;DHT22;24973;47.178;15.316;2023-01-28T16:53:09;0.50;99.90
21799;DHT22;24973;47.178;15.316;2023-01-28T16:56:05;0.50;99.90
21799;DHT22;24973;47.178;15.316;2023-01-28T16:59:00;0.40;99.90
21799;DHT22;24973;47.178;15.316;2023-01-28T17:01:49;1.90;99.90
21799;DHT22;24973;47.178;15.316;2023-01-28T17:04:39;1.60;99.90
21799;DHT22;24973;47.178;15.316;2023-01-28T17:07:29;1.20;99.90
21799;DHT22;24973;47.178;15.316;2023-01-28T17:10:18;0.40;99.90
21799;DHT22;24973;47.178;15.316;2023-01-28T17:13:07;0.50;99.90
21799;DHT22;24973;47.178;15.316;2023-01-28T17:15:56;0.40;99.90
21799;DHT22;24973;47.178;15.316;2023-01-28T17:18:50;1.00;99.90
21799;DHT22;24973;47.178;15.316;2023-01-28T17:21:40;0.30;99.90
21799;DHT22;24973;47.178;15.316;2023-01-28T17:24:29;0.40;99.90
21799;DHT22;24973;47.178;15.316;2023-01-28T17:27:18;0.40;99.90
21799;DHT22;24973;47.178;15.316;2023-01-28T17:30:08;1.40;99.90
21799;DHT22;24973;47.178;15.316;2023-01-28T17:32:59;0.30;99.90
21799;DHT22;24973;47.178;15.316;2023-01-28T17:35:47;0.40;99.90
21799;DHT22;24973;47.178;15.316;2023-01-28T17:38:38;0.30;99.90
21799;DHT22;24973;47.178;15.316;2023-01-28T17:41:26;0.30;99.90
21799;DHT22;24973;47.178;15.316;2023-01-28T17:44:15;0.30;99.90
21799;DHT22;24973;47.178;15.316;2023-01-28T17:47:04;0.20;99.90
21799;DHT22;24973;47.178;15.316;2023-01-28T17:49:53;0.20;99.90
21799;DHT22;24973;47.178;15.316;2023-01-28T17:52:43;0.90;99.90
21799;DHT22;24973;47.178;15.316;2023-01-28T17:55:35;0.60;99.90
21799;DHT22;24973;47.178;15.316;2023-01-28T17:58:24;0.20;99.90
21799;DHT22;24973;47.178;15.316;2023-01-28T18:01:13;0.20;99.90
21799;DHT22;24973;47.178;15.316;2023-01-28T18:04:02;0.90;99.90
21799;DHT22;24973;47.178;15.316;2023-01-28T18:06:51;0.20;99.90
21799;DHT22;24973;47.178;15.316;2023-01-28T18:09:41;0.20;99.90
21799;DHT22;24973;47.178;15.316;2023-01-28T18:12:33;0.20;99.90
21799;DHT22;24973;47.178;15.316;2023-01-28T18:15:22;0.20;99.90
21799;DHT22;24973;47.178;15.316;2023-01-28T18:18:10;0.80;99.90
21799;DHT22;24973;47.178;15.316;2023-01-28T18:21:00;1.00;99.90